TimeCDT,TemperatureF,Dew PointF,Humidity,Sea Level PressureIn,VisibilityMPH,Wind Direction,Wind SpeedMPH,Gust SpeedMPH,PrecipitationIn,Events,Conditions,WindDirDegrees,DateUTC
12:51 AM,70.0,55.9,61,29.86,10.0,South,10.4,-,N/A,,Overcast,170,2013-04-09 05:51:00
1:51 AM,69.1,55.9,63,29.84,10.0,SE,8.1,-,N/A,,Overcast,140,2013-04-09 06:51:00
2:51 AM,68.0,55.9,65,29.82,10.0,SE,10.4,-,N/A,,Mostly Cloudy,140,2013-04-09 07:51:00
3:51 AM,66.0,55.9,70,29.81,10.0,SSE,11.5,-,N/A,,Scattered Clouds,150,2013-04-09 08:51:00
4:51 AM,66.0,55.0,68,29.80,10.0,SSE,11.5,-,N/A,,Partly Cloudy,150,2013-04-09 09:51:00
5:51 AM,66.0,55.0,68,29.81,10.0,SSE,11.5,-,N/A,,Mostly Cloudy,150,2013-04-09 10:51:00
6:51 AM,66.9,55.0,66,29.84,10.0,South,13.8,-,N/A,,Mostly Cloudy,170,2013-04-09 11:51:00
7:51 AM,68.0,55.9,65,29.84,10.0,South,12.7,20.7,N/A,,Mostly Cloudy,170,2013-04-09 12:51:00
8:51 AM,68.0,55.9,65,29.84,10.0,South,17.3,25.3,N/A,,Mostly Cloudy,180,2013-04-09 13:51:00
9:51 AM,70.0,57.0,63,29.85,10.0,South,16.1,21.9,N/A,,Mostly Cloudy,180,2013-04-09 14:51:00
10:51 AM,73.0,57.0,57,29.87,10.0,South,12.7,23.0,N/A,,Overcast,190,2013-04-09 15:51:00
11:51 AM,75.0,57.9,55,29.85,10.0,SSW,24.2,40.3,N/A,,Overcast,200,2013-04-09 16:51:00
12:51 PM,73.0,57.9,59,29.86,10.0,SSW,17.3,29.9,N/A,,Overcast,200,2013-04-09 17:51:00
1:51 PM,75.2,59.0,57,29.87,10.0,SSW,19.6,-,N/A,,Mostly Cloudy,200,2013-04-09 18:51:00
2:51 PM,77.0,59.0,54,29.83,10.0,SSW,17.3,26.5,N/A,,Mostly Cloudy,200,2013-04-09 19:51:00
3:51 PM,78.1,59.0,52,29.82,10.0,SSW,19.6,24.2,N/A,,Mostly Cloudy,200,2013-04-09 20:51:00
4:51 PM,79.0,59.0,50,29.80,10.0,SSW,16.1,23.0,N/A,,Mostly Cloudy,200,2013-04-09 21:51:00
5:51 PM,79.0,59.0,50,29.80,10.0,SSW,10.4,-,N/A,,Mostly Cloudy,210,2013-04-09 22:51:00
6:51 PM,78.1,59.0,52,29.79,10.0,SSE,11.5,-,N/A,,Scattered Clouds,160,2013-04-09 23:51:00
7:51 PM,75.0,60.1,60,29.80,10.0,SE,6.9,-,N/A,,Scattered Clouds,140,2013-04-10 00:51:00
8:51 PM,73.9,61.0,64,29.81,10.0,SE,8.1,-,N/A,,Scattered Clouds,140,2013-04-10 01:51:00
9:51 PM,70.0,60.1,71,29.83,10.0,SE,6.9,-,N/A,,Partly Cloudy,130,2013-04-10 02:51:00
10:51 PM,69.1,59.0,70,29.81,10.0,SE,5.8,-,N/A,,Clear,140,2013-04-10 03:51:00
11:51 PM,72.0,59.0,64,29.79,10.0,SSE,8.1,-,N/A,,Clear,150,2013-04-10 04:51:00